Time;durP1;ratioP1;P1;durP2;ratioP2;P2;SDS_P1;SDS_P2;PMS_P1;PMS_P2;Temp;Humidity;BMP_temperature;BMP_pressure;BME280_temperature;BME280_humidity;BME280_pressure;Samples;Min_cycle;Max_cycle;Signal;HPM_P1;HPM_P2
2022/04/25 00:01:59;;;;;;;2.13;1.33;;;10.70;98.00;;;;;;5114922;28;20808;-68
2022/04/25 00:04:26;;;;;;;2.17;2.00;;;10.70;98.00;;;;;;5114801;28;20462;-68
2022/04/25 00:06:53;;;;;;;1.90;1.70;;;10.70;98.00;;;;;;5114931;28;20511;-69
2022/04/25 00:09:20;;;;;;;3.10;2.40;;;10.70;98.00;;;;;;5113517;28;20485;-68
2022/04/25 00:11:49;;;;;;;2.77;2.53;;;10.70;98.00;;;;;;5114756;28;20497;-69
2022/04/25 00:14:16;;;;;;;1.60;1.47;;;10.80;98.00;;;;;;5113331;28;20905;-68
2022/04/25 00:16:42;;;;;;;4.33;1.67;;;10.60;98.00;;;;;;5114634;28;20455;-68
2022/04/25 00:19:10;;;;;;;3.17;2.00;;;10.50;98.00;;;;;;5114364;28;20485;-68
2022/04/25 00:21:45;;;;;;;3.77;2.90;;;10.60;98.00;;;;;;5114701;28;21018;-69
2022/04/25 00:24:12;;;;;;;2.67;2.50;;;10.70;98.00;;;;;;5097040;28;20471;-68
2022/04/25 00:26:39;;;;;;;5.53;1.97;;;10.60;98.00;;;;;;5114438;28;20457;-68
2022/04/25 00:29:07;;;;;;;1.80;1.80;;;10.60;98.00;;;;;;5114469;28;20517;-68
2022/04/25 00:31:34;;;;;;;1.80;1.70;;;10.60;98.00;;;;;;5114390;28;20924;-68
2022/04/25 00:34:01;;;;;;;2.27;2.10;;;10.60;98.00;;;;;;5114258;28;20489;-68
2022/04/25 00:36:28;;;;;;;2.10;1.83;;;10.60;98.00;;;;;;5114153;28;20501;-69
2022/04/25 00:38:55;;;;;;;2.40;2.20;;;10.70;98.00;;;;;;5114227;28;20494;-68
2022/04/25 00:41:22;;;;;;;2.97;2.60;;;10.60;98.00;;;;;;5114041;28;20798;-68
2022/04/25 00:43:49;;;;;;;2.00;1.90;;;10.70;98.00;;;;;;5114056;28;20455;-69
2022/04/25 00:46:23;;;;;;;2.00;1.80;;;10.60;98.00;;;;;;5112224;28;20477;-69
2022/04/25 00:48:51;;;;;;;2.00;1.90;;;10.60;98.00;;;;;;5113786;28;20479;-68
2022/04/25 00:51:18;;;;;;;3.70;2.43;;;10.60;98.00;;;;;;5113805;28;20457;-69
2022/04/25 00:53:48;;;;;;;2.13;1.97;;;10.60;98.00;;;;;;5113883;28;20452;-68
2022/04/25 00:56:16;;;;;;;2.57;1.90;;;10.50;98.00;;;;;;5113647;28;20548;-68
2022/04/25 00:58:44;;;;;;;3.40;2.10;;;10.40;98.00;;;;;;5113737;27;20527;-68
2022/04/25 01:01:11;;;;;;;1.90;1.90;;;10.40;98.00;;;;;;5113750;28;20453;-68
2022/04/25 01:03:39;;;;;;;3.60;2.80;;;10.40;98.00;;;;;;5113663;28;20454;-68
2022/04/25 01:06:06;;;;;;;2.00;1.87;;;10.50;98.00;;;;;;5113770;28;20493;-68
2022/04/25 01:08:34;;;;;;;2.63;1.90;;;10.50;98.00;;;;;;5113578;28;20517;-68
2022/04/25 01:11:03;;;;;;;2.37;2.17;;;10.50;98.00;;;;;;5112690;28;20451;-68
2022/04/25 01:13:30;;;;;;;1.50;1.40;;;10.50;98.00;;;;;;5113406;28;20458;-69
2022/04/25 01:16:00;;;;;;;1.90;1.80;;;10.60;98.00;;;;;;5113560;28;21037;-68
2022/04/25 01:18:27;;;;;;;2.00;1.83;;;10.60;98.00;;;;;;5113279;28;20573;-68
2022/04/25 01:20:59;;;;;;;2.30;1.90;;;10.60;98.00;;;;;;5113578;28;20486;-68
2022/04/25 01:29:00;;;;;;;1.63;1.53;;;10.40;98.00;;;;;;5113201;28;20481;-68
2022/04/25 01:31:27;;;;;;;2.37;2.23;;;10.60;98.00;;;;;;5112994;28;20462;-69
2022/04/25 01:33:54;;;;;;;2.83;2.20;;;10.60;98.00;;;;;;5113002;28;20450;-68
2022/04/25 01:36:23;;;;;;;1.90;1.80;;;10.60;98.00;;;;;;5111682;28;20486;-68
2022/04/25 01:38:53;;;;;;;3.87;3.20;;;10.60;98.00;;;;;;5113004;28;20475;-68
2022/04/25 01:41:20;;;;;;;2.00;1.90;;;10.50;98.00;;;;;;5112848;28;20457;-68
2022/04/25 01:43:47;;;;;;;6.53;2.40;;;10.50;98.00;;;;;;5112832;28;21006;-69
2022/04/25 01:46:14;;;;;;;1.90;1.80;;;10.50;98.00;;;;;;5112814;28;20478;-68
2022/04/25 01:48:41;;;;;;;3.27;2.80;;;10.50;98.00;;;;;;5112566;27;20512;-68
2022/04/25 01:51:11;;;;;;;4.27;2.43;;;10.40;98.00;;;;;;5113066;28;21026;-68
2022/04/25 01:53:38;;;;;;;3.00;2.67;;;10.30;98.00;;;;;;5113384;28;20455;-68
2022/04/25 01:56:06;;;;;;;1.67;1.63;;;10.40;98.00;;;;;;5112772;27;20516;-68
2022/04/25 01:58:34;;;;;;;3.00;2.80;;;10.30;98.00;;;;;;5112559;28;20462;-68
2022/04/25 02:01:01;;;;;;;1.83;1.70;;;10.40;98.00;;;;;;5112328;28;20518;-68
2022/04/25 02:03:33;;;;;;;3.13;2.33;;;10.40;98.00;;;;;;5111327;28;20511;-69
2022/04/25 02:06:00;;;;;;;3.10;2.90;;;10.30;98.00;;;;;;5112514;28;20459;-68
2022/04/25 02:08:27;;;;;;;3.13;2.63;;;10.20;98.00;;;;;;5111047;28;20482;-69
2022/04/25 02:13:36;;;;;;;2.50;1.70;;;10.20;98.00;;;;;;5112281;28;20953;-68
2022/04/25 02:16:03;;;;;;;4.37;3.10;;;10.10;98.00;;;;;;5112385;28;20792;-68
2022/04/25 02:18:30;;;;;;;2.57;2.03;;;10.00;98.00;;;;;;5110928;28;20492;-68
2022/04/25 02:20:57;;;;;;;3.77;3.03;;;10.00;98.00;;;;;;5112354;28;20462;-68
2022/04/25 02:23:25;;;;;;;3.07;2.43;;;10.00;98.00;;;;;;5112086;28;20879;-68
2022/04/25 02:25:52;;;;;;;2.23;2.03;;;10.00;98.00;;;;;;5110943;28;20761;-68
2022/04/25 02:28:19;;;;;;;2.27;2.03;;;10.10;98.00;;;;;;5111953;28;20999;-68
2022/04/25 02:30:47;;;;;;;3.80;2.90;;;10.10;98.00;;;;;;5111919;28;20475;-68
2022/04/25 02:33:14;;;;;;;2.87;2.70;;;10.10;98.00;;;;;;5112074;28;20554;-68
2022/04/25 02:35:43;;;;;;;3.47;2.57;;;10.00;98.00;;;;;;5111779;28;20458;-68
2022/04/25 02:38:10;;;;;;;2.50;1.70;;;9.90;98.00;;;;;;5111622;28;21015;-68
2022/04/25 02:40:37;;;;;;;5.63;2.30;;;9.90;98.00;;;;;;5111803;28;20804;-68
2022/04/25 02:43:04;;;;;;;2.87;2.67;;;10.10;98.00;;;;;;5110553;28;20511;-68
2022/04/25 02:45:31;;;;;;;3.10;2.40;;;10.00;98.00;;;;;;5111461;28;20487;-68
2022/04/25 02:47:59;;;;;;;2.90;2.70;;;10.10;98.00;;;;;;5111543;28;20470;-68
2022/04/25 02:50:26;;;;;;;3.70;3.43;;;10.10;98.00;;;;;;5111507;28;20516;-68
2022/04/25 02:52:54;;;;;;;4.30;3.00;;;10.20;98.00;;;;;;5110319;28;20457;-68
2022/04/25 02:55:21;;;;;;;2.67;2.10;;;10.20;98.00;;;;;;5111527;28;20473;-68
2022/04/25 02:57:48;;;;;;;4.40;2.93;;;10.20;98.00;;;;;;5110387;28;20496;-68
2022/04/25 03:00:16;;;;;;;1.57;1.50;;;10.20;98.00;;;;;;5111775;28;20447;-68
2022/04/25 03:02:44;;;;;;;3.17;2.77;;;10.20;98.00;;;;;;5111543;28;20476;-68
2022/04/25 03:05:12;;;;;;;3.30;2.70;;;10.20;98.00;;;;;;5111648;28;20452;-68
2022/04/25 03:07:39;;;;;;;4.20;2.37;;;10.20;98.00;;;;;;5111652;28;20500;-68
2022/04/25 03:10:07;;;;;;;3.37;3.17;;;10.10;98.00;;;;;;5111426;28;20450;-69
2022/04/25 03:12:38;;;;;;;4.13;2.30;;;10.00;98.00;;;;;;5111505;28;20522;-68
2022/04/25 03:15:06;;;;;;;2.73;2.60;;;10.00;98.00;;;;;;5111349;28;20450;-68
2022/04/25 03:17:33;;;;;;;5.43;2.90;;;10.00;98.00;;;;;;5111396;28;20501;-68
2022/04/25 03:20:00;;;;;;;1.90;1.67;;;10.00;98.00;;;;;;5111282;28;20871;-68
2022/04/25 03:22:28;;;;;;;2.50;2.30;;;10.00;98.00;;;;;;5111192;28;20450;-68
2022/04/25 03:24:55;;;;;;;2.57;2.37;;;10.10;98.00;;;;;;5111245;28;20818;-68
2022/04/25 03:27:22;;;;;;;3.60;3.13;;;10.00;98.00;;;;;;5111383;28;20627;-68
2022/04/25 03:29:50;;;;;;;3.27;3.10;;;10.00;98.00;;;;;;5111038;28;20485;-68
2022/04/25 03:32:17;;;;;;;3.37;2.30;;;10.00;98.00;;;;;;5110882;28;20449;-68
2022/04/25 03:34:47;;;;;;;1.63;1.63;;;10.00;98.00;;;;;;5115201;28;20479;-68
2022/04/25 03:37:14;;;;;;;5.13;3.00;;;10.00;98.00;;;;;;5115547;28;20511;-68
2022/04/25 03:39:43;;;;;;;4.97;2.70;;;10.00;98.00;;;;;;5113803;28;20458;-68
2022/04/25 03:42:10;;;;;;;3.00;2.63;;;10.00;98.00;;;;;;5115476;28;20516;-68
2022/04/25 03:44:36;;;;;;;2.23;2.00;;;10.00;98.00;;;;;;5115184;28;20818;-68
2022/04/25 03:47:04;;;;;;;3.43;2.30;;;10.00;98.00;;;;;;5115010;28;20526;-68
2022/04/25 03:49:31;;;;;;;3.80;2.80;;;10.20;98.00;;;;;;5115132;28;20516;-68
2022/04/25 03:51:59;;;;;;;2.70;2.23;;;10.30;98.00;;;;;;5113842;28;20503;-68
2022/04/25 03:57:14;;;;;;;4.43;2.60;;;10.20;98.00;;;;;;5114298;28;20925;-68
2022/04/25 03:59:41;;;;;;;2.93;1.97;;;10.20;98.00;;;;;;5115015;28;20475;-68
2022/04/25 04:02:09;;;;;;;2.33;1.97;;;10.40;98.00;;;;;;5114862;28;20489;-68
2022/04/25 04:04:36;;;;;;;2.30;2.10;;;10.30;98.00;;;;;;5113652;28;20457;-68
2022/04/25 04:07:03;;;;;;;3.17;2.67;;;10.20;98.00;;;;;;5114770;28;20867;-68
2022/04/25 04:09:49;;;;;;;3.97;2.03;;;10.20;98.00;;;;;;5113424;28;20577;-68
2022/04/25 04:12:18;;;;;;;2.30;2.10;;;10.20;98.00;;;;;;5114556;28;20456;-68
2022/04/25 04:14:46;;;;;;;2.60;2.40;;;10.30;98.00;;;;;;5114550;28;20510;-68
2022/04/25 04:17:14;;;;;;;3.10;2.53;;;10.40;98.00;;;;;;5113360;28;20465;-68
2022/04/25 04:19:41;;;;;;;4.20;2.83;;;10.40;98.00;;;;;;5114537;28;20798;-68
2022/04/25 04:22:08;;;;;;;2.60;2.40;;;10.30;98.00;;;;;;5114541;27;20450;-68
2022/04/25 04:24:36;;;;;;;3.03;2.20;;;10.20;98.00;;;;;;5114375;28;20489;-68
2022/04/25 04:27:03;;;;;;;3.13;2.93;;;10.20;98.00;;;;;;5114312;28;20540;-68
2022/04/25 04:29:35;;;;;;;1.87;1.83;;;10.10;98.00;;;;;;5114413;28;20485;-68
2022/04/25 04:32:06;;;;;;;2.53;2.33;;;10.10;98.00;;;;;;5114450;28;20453;-69
2022/04/25 04:34:34;;;;;;;3.53;2.80;;;10.10;98.00;;;;;;5114527;28;20500;-68
2022/04/25 04:37:03;;;;;;;3.93;2.40;;;10.10;98.00;;;;;;5114408;28;20488;-68
2022/04/25 04:39:31;;;;;;;3.13;2.27;;;10.10;98.00;;;;;;5114872;28;20485;-68
2022/04/25 04:41:58;;;;;;;4.67;3.10;;;10.00;98.00;;;;;;5115267;28;20463;-68
2022/04/25 04:44:25;;;;;;;2.23;2.03;;;10.00;98.00;;;;;;5113685;28;20513;-68
2022/04/25 04:46:53;;;;;;;3.43;2.23;;;10.00;98.00;;;;;;5114566;28;20458;-68
2022/04/25 04:49:20;;;;;;;2.90;2.57;;;10.00;98.00;;;;;;5114323;28;20522;-68
2022/04/25 04:51:53;;;;;;;1.60;1.40;;;10.10;98.00;;;;;;5114120;28;20958;-68
2022/04/25 04:54:20;;;;;;;2.13;2.00;;;10.20;98.00;;;;;;5114046;28;20523;-67
2022/04/25 04:56:49;;;;;;;2.70;2.50;;;10.20;98.00;;;;;;5114057;28;20491;-68
2022/04/25 04:59:15;;;;;;;2.80;2.60;;;10.20;98.00;;;;;;5114037;28;20454;-68
2022/04/25 05:01:43;;;;;;;3.70;2.93;;;10.30;98.00;;;;;;5113649;28;20494;-68
2022/04/25 05:04:12;;;;;;;6.10;3.20;;;10.20;98.00;;;;;;5113762;28;21023;-68
2022/04/25 05:06:39;;;;;;;2.07;1.97;;;10.20;98.00;;;;;;5113618;27;20459;-68
2022/04/25 05:09:06;;;;;;;4.77;3.47;;;10.40;98.00;;;;;;5113409;28;20607;-68
2022/04/25 05:11:34;;;;;;;4.20;2.80;;;10.50;98.00;;;;;;5113679;28;20965;-68
2022/04/25 05:14:07;;;;;;;2.40;2.20;;;10.60;98.00;;;;;;5113533;28;20505;-68
2022/04/25 05:16:34;;;;;;;3.30;2.57;;;10.70;98.00;;;;;;5113617;28;20505;-68
2022/04/25 05:19:02;;;;;;;3.67;2.27;;;11.00;98.00;;;;;;5113531;28;20461;-68
2022/04/25 05:21:30;;;;;;;3.17;2.57;;;11.00;98.00;;;;;;5112022;28;20451;-68
2022/04/25 05:23:57;;;;;;;3.50;2.83;;;11.00;98.00;;;;;;5112140;28;20482;-68
2022/04/25 05:26:24;;;;;;;4.70;3.10;;;11.00;98.00;;;;;;5113335;28;20494;-68
2022/04/25 05:28:51;;;;;;;3.83;3.00;;;11.10;98.00;;;;;;5113151;28;20781;-68
2022/04/25 05:31:18;;;;;;;3.10;2.70;;;11.00;98.00;;;;;;5113183;28;20785;-68
2022/04/25 05:33:45;;;;;;;1.60;1.50;;;10.90;98.00;;;;;;5113367;28;20489;-68
2022/04/25 05:36:13;;;;;;;3.97;2.30;;;10.80;98.00;;;;;;5113079;28;20461;-68
2022/04/25 05:38:41;;;;;;;4.00;3.40;;;10.80;98.00;;;;;;5113240;28;20507;-68
2022/04/25 05:41:09;;;;;;;2.73;2.50;;;10.70;98.00;;;;;;5112269;28;20459;-68
2022/04/25 05:43:37;;;;;;;2.90;2.43;;;10.70;98.00;;;;;;5111832;28;20453;-69
2022/04/25 05:46:04;;;;;;;2.83;2.43;;;10.70;98.00;;;;;;5113030;28;20497;-68
2022/04/25 05:54:02;;;;;;;1.70;1.50;;;10.90;98.00;;;;;;5112894;28;20446;-68
2022/04/25 05:56:29;;;;;;;4.27;2.60;;;11.00;98.00;;;;;;5112224;28;20455;-68
2022/04/25 05:58:56;;;;;;;3.30;2.03;;;11.00;98.00;;;;;;5112816;28;20498;-68
2022/04/25 06:01:23;;;;;;;3.20;2.60;;;11.00;98.00;;;;;;5112324;28;20889;-68
2022/04/25 06:03:50;;;;;;;3.70;2.00;;;11.00;98.00;;;;;;5112531;28;20511;-68
2022/04/25 06:06:20;;;;;;;4.00;3.00;;;11.10;98.00;;;;;;5111114;28;20442;-68
2022/04/25 06:08:48;;;;;;;1.80;1.70;;;11.00;98.00;;;;;;5112407;28;20522;-68
2022/04/25 06:11:17;;;;;;;1.77;1.67;;;10.90;98.00;;;;;;5112286;28;20462;-67
2022/04/25 06:13:44;;;;;;;2.50;2.30;;;11.00;98.00;;;;;;5112536;28;20540;-68
2022/04/25 06:16:12;;;;;;;3.23;2.50;;;11.10;98.00;;;;;;5112239;28;20457;-68
2022/04/25 06:18:39;;;;;;;2.63;2.27;;;11.20;98.00;;;;;;5112321;28;20949;-68
2022/04/25 06:21:05;;;;;;;2.20;2.00;;;11.20;98.00;;;;;;5112049;28;20461;-69
2022/04/25 06:23:32;;;;;;;5.80;2.53;;;11.10;98.00;;;;;;5112210;28;20455;-68
2022/04/25 06:25:59;;;;;;;3.27;2.80;;;11.10;98.00;;;;;;5112120;28;20531;-68
2022/04/25 06:28:29;;;;;;;3.33;2.60;;;11.10;98.00;;;;;;5112225;28;20552;-68
2022/04/25 06:30:56;;;;;;;3.80;3.10;;;11.00;98.00;;;;;;5112088;28;20562;-68
2022/04/25 06:33:23;;;;;;;1.87;1.77;;;11.10;98.00;;;;;;5112094;28;20451;-68
2022/04/25 06:35:50;;;;;;;5.33;2.80;;;11.20;98.00;;;;;;5110230;28;20453;-68
2022/04/25 06:38:18;;;;;;;2.67;2.50;;;11.40;98.00;;;;;;5111929;28;20954;-68
2022/04/25 06:40:46;;;;;;;2.90;2.30;;;11.40;98.00;;;;;;5111604;28;20468;-68
2022/04/25 06:43:14;;;;;;;2.57;2.33;;;11.50;98.00;;;;;;5111808;28;20450;-68
2022/04/25 06:45:42;;;;;;;3.23;3.03;;;11.60;98.00;;;;;;5110065;28;20504;-68
2022/04/25 06:48:11;;;;;;;3.57;3.00;;;11.80;98.00;;;;;;5111527;28;20459;-68
2022/04/25 06:50:38;;;;;;;2.60;2.27;;;11.90;98.00;;;;;;5111139;28;20479;-67
2022/04/25 06:53:05;;;;;;;2.83;2.00;;;12.00;98.00;;;;;;5111335;28;20512;-68
2022/04/25 06:55:34;;;;;;;2.63;2.40;;;12.10;98.00;;;;;;5111605;28;20486;-68
2022/04/25 06:58:02;;;;;;;8.77;3.03;;;12.10;98.00;;;;;;5111780;28;20512;-68
2022/04/25 07:00:29;;;;;;;2.63;1.87;;;12.20;98.00;;;;;;5110548;28;20459;-67
2022/04/25 07:02:57;;;;;;;4.10;3.03;;;12.10;98.00;;;;;;5111499;28;20487;-69
2022/04/25 07:05:25;;;;;;;4.53;3.03;;;12.10;98.00;;;;;;5109602;27;20523;-69
2022/04/25 07:07:53;;;;;;;3.00;2.53;;;12.40;98.00;;;;;;5119215;27;20487;-69
2022/04/25 07:10:20;;;;;;;5.57;3.10;;;12.60;98.00;;;;;;5125318;27;20534;-67
2022/04/25 07:12:48;;;;;;;4.07;2.50;;;12.60;98.00;;;;;;5113272;27;20453;-66
2022/04/25 07:15:15;;;;;;;3.60;2.93;;;12.70;98.00;;;;;;5114805;28;20486;-67
2022/04/25 07:17:42;;;;;;;4.00;2.50;;;12.70;98.00;;;;;;5113132;28;20456;-67
2022/04/25 07:20:11;;;;;;;2.50;2.30;;;12.80;98.00;;;;;;5111102;28;20490;-67
2022/04/25 07:30:53;;;;;;;2.10;2.00;;;12.90;98.00;;;;;;5111276;28;20890;-67
2022/04/25 07:33:20;;;;;;;7.20;3.63;;;13.00;98.00;;;;;;5111262;28;20529;-66
2022/04/25 07:35:49;;;;;;;2.43;1.90;;;13.00;98.00;;;;;;5109971;28;20448;-67
2022/04/25 07:38:16;;;;;;;2.30;1.70;;;13.00;98.00;;;;;;5111167;28;20448;-66
2022/04/25 07:40:43;;;;;;;2.07;1.90;;;13.20;98.00;;;;;;5111219;28;20878;-67
2022/04/25 07:43:10;;;;;;;3.30;2.43;;;13.20;98.00;;;;;;5111016;28;20474;-66
2022/04/25 07:45:37;;;;;;;2.03;1.90;;;13.50;98.00;;;;;;5110952;28;20450;-67
2022/04/25 07:48:05;;;;;;;2.83;1.97;;;13.70;98.00;;;;;;5110898;28;20470;-66
2022/04/25 07:50:32;;;;;;;9.30;4.27;;;13.90;98.00;;;;;;5110767;28;21028;-68
2022/04/25 07:53:01;;;;;;;3.43;2.20;;;13.70;98.00;;;;;;5111034;28;20542;-68
2022/04/25 07:55:29;;;;;;;3.73;2.33;;;13.70;98.00;;;;;;5110924;28;20457;-69
2022/04/25 07:57:57;;;;;;;2.13;1.93;;;13.60;98.00;;;;;;5111064;28;20528;-69
2022/04/25 08:00:27;;;;;;;3.83;2.37;;;13.80;98.00;;;;;;5109705;28;20536;-69
2022/04/25 08:02:54;;;;;;;2.20;1.63;;;13.90;98.00;;;;;;5111007;28;20475;-69
2022/04/25 08:05:21;;;;;;;3.13;2.50;;;14.00;98.00;;;;;;5109744;28;20542;-68
2022/04/25 08:07:48;;;;;;;4.60;2.77;;;14.00;98.00;;;;;;5110984;28;20500;-68
2022/04/25 08:10:16;;;;;;;4.60;3.17;;;14.10;98.00;;;;;;5110708;28;20519;-68
2022/04/25 08:18:13;;;;;;;2.60;2.40;;;13.90;98.00;;;;;;5111010;28;20440;-68
2022/04/25 08:20:42;;;;;;;2.27;2.13;;;13.60;98.00;;;;;;5114565;28;20458;-69
2022/04/25 08:23:12;;;;;;;2.87;2.03;;;13.60;98.00;;;;;;5114529;28;20546;-69
2022/04/25 08:25:41;;;;;;;2.50;2.00;;;13.90;98.00;;;;;;5114483;28;20921;-69
2022/04/25 08:28:09;;;;;;;2.50;2.30;;;14.50;98.00;;;;;;5114465;28;20451;-69
2022/04/25 08:30:36;;;;;;;4.57;2.10;;;15.20;98.00;;;;;;5114182;28;20484;-69
2022/04/25 08:33:04;;;;;;;3.43;2.37;;;15.90;98.00;;;;;;5114219;28;20504;-69
2022/04/25 08:35:31;;;;;;;3.40;2.03;;;16.50;98.00;;;;;;5114303;28;20540;-69
2022/04/25 08:37:59;;;;;;;5.50;2.70;;;16.80;98.00;;;;;;5114239;28;20503;-66
2022/04/25 08:40:26;;;;;;;3.70;2.33;;;17.20;98.00;;;;;;5114153;28;20459;-67
2022/04/25 08:42:59;;;;;;;4.50;2.80;;;17.10;97.30;;;;;;5114180;28;20508;-66
2022/04/25 08:45:28;;;;;;;3.07;2.17;;;16.90;97.00;;;;;;5114178;28;20458;-66
2022/04/25 08:47:58;;;;;;;3.50;2.67;;;16.70;98.00;;;;;;5113941;27;20769;-66
2022/04/25 08:50:26;;;;;;;2.67;1.90;;;16.60;98.00;;;;;;5113999;27;21115;-66
2022/04/25 08:52:54;;;;;;;5.20;3.07;;;16.50;98.00;;;;;;5113917;28;20455;-68
2022/04/25 08:55:21;;;;;;;2.70;2.30;;;16.40;98.00;;;;;;5113860;28;20523;-68
2022/04/25 08:57:49;;;;;;;3.17;2.10;;;16.30;98.00;;;;;;5113925;28;20492;-69
2022/04/25 09:00:18;;;;;;;4.60;2.97;;;16.30;98.00;;;;;;5113775;28;20540;-68
2022/04/25 09:02:47;;;;;;;3.10;2.50;;;16.20;98.00;;;;;;5113803;28;20533;-68
2022/04/25 09:05:16;;;;;;;2.67;2.47;;;16.20;98.00;;;;;;5112481;28;20967;-68
2022/04/25 09:07:44;;;;;;;3.20;2.27;;;16.20;98.00;;;;;;5114071;28;20507;-68
2022/04/25 09:10:14;;;;;;;2.47;1.90;;;16.20;98.00;;;;;;5113548;28;20514;-68
2022/04/25 09:12:43;;;;;;;2.73;2.10;;;16.20;98.00;;;;;;5113531;28;20500;-68
2022/04/25 09:15:13;;;;;;;2.33;1.93;;;16.20;98.00;;;;;;5113300;27;20480;-69
2022/04/25 09:17:42;;;;;;;2.90;1.90;;;16.20;98.00;;;;;;5112238;27;20549;-71
2022/04/25 09:20:11;;;;;;;2.50;1.97;;;16.40;98.00;;;;;;5112467;27;20950;-71
2022/04/25 09:22:40;;;;;;;3.50;2.30;;;16.50;98.00;;;;;;5121541;27;20453;-71
2022/04/25 09:25:10;;;;;;;3.93;2.33;;;16.60;98.00;;;;;;5120500;27;20457;-69
2022/04/25 09:27:38;;;;;;;3.50;2.50;;;16.60;98.00;;;;;;5128762;27;20526;-69
2022/04/25 09:30:16;;;;;;;1.97;1.90;;;16.50;98.00;;;;;;5128417;27;20569;-69
2022/04/25 09:32:45;;;;;;;3.20;2.30;;;16.50;98.00;;;;;;5112416;27;20503;-68
2022/04/25 09:35:38;;;;;;;2.40;1.80;;;16.50;98.00;;;;;;5120434;27;20908;-68
2022/04/25 09:38:08;;;;;;;3.90;2.27;;;16.60;98.00;;;;;;5104860;27;20457;-69
2022/04/25 09:40:36;;;;;;;3.93;2.43;;;16.70;97.70;;;;;;5124488;27;20453;-69
2022/04/25 09:43:08;;;;;;;2.70;1.90;;;16.80;96.60;;;;;;5116372;27;20480;-69
2022/04/25 09:45:40;;;;;;;3.03;2.17;;;16.90;98.00;;;;;;5110167;28;20578;-69
2022/04/25 09:48:14;;;;;;;3.20;2.47;;;17.10;98.00;;;;;;5126153;27;20545;-68
2022/04/25 09:50:41;;;;;;;2.93;2.60;;;17.10;96.40;;;;;;5119197;27;20506;-69
2022/04/25 09:53:10;;;;;;;3.40;2.17;;;17.00;97.90;;;;;;5112170;27;20454;-68
2022/04/25 09:55:39;;;;;;;2.47;1.93;;;17.00;97.30;;;;;;5111125;27;20481;-68
2022/04/25 09:58:18;;;;;;;3.33;2.30;;;16.90;98.00;;;;;;5120873;27;20454;-68
2022/04/25 10:00:46;;;;;;;2.63;2.03;;;16.70;98.00;;;;;;5128748;27;20456;-68
2022/04/25 10:03:16;;;;;;;3.43;2.50;;;16.80;98.00;;;;;;5117379;27;20511;-68
2022/04/25 10:05:45;;;;;;;4.37;2.60;;;16.90;98.00;;;;;;5129367;27;20489;-68
2022/04/25 10:08:13;;;;;;;4.40;2.50;;;16.80;97.80;;;;;;5121033;27;20456;-68
2022/04/25 10:10:45;;;;;;;2.60;1.73;;;16.30;98.00;;;;;;5129182;27;20513;-68
2022/04/25 10:13:13;;;;;;;2.87;2.67;;;16.30;98.00;;;;;;5121031;27;20450;-69
2022/04/25 10:15:42;;;;;;;2.97;2.33;;;16.20;98.00;;;;;;5121536;27;20489;-69
2022/04/25 10:18:10;;;;;;;3.77;2.37;;;16.20;98.00;;;;;;5121609;27;20503;-69
2022/04/25 10:20:40;;;;;;;3.30;2.43;;;16.00;98.00;;;;;;5111098;27;20463;-70
2022/04/25 10:23:09;;;;;;;3.67;2.10;;;16.00;98.00;;;;;;5111110;27;21044;-68
2022/04/25 10:25:37;;;;;;;3.80;2.57;;;16.00;98.00;;;;;;5120041;27;20916;-68
2022/04/25 10:28:08;;;;;;;1.93;1.83;;;16.00;98.00;;;;;;5119586;27;20539;-68
2022/04/25 10:30:36;;;;;;;3.43;2.07;;;15.90;98.00;;;;;;5128675;27;20520;-69
2022/04/25 10:33:17;;;;;;;3.57;2.63;;;15.90;98.00;;;;;;5110901;27;20457;-69
2022/04/25 10:35:49;;;;;;;3.57;2.47;;;16.00;98.00;;;;;;5104265;27;20456;-68
2022/04/25 10:38:56;;;;;;;2.53;2.37;;;16.30;98.00;;;;;;5121521;27;20461;-68
2022/04/25 10:44:12;;;;;;;3.03;2.30;;;17.10;98.00;;;;;;5094400;27;20456;-69
2022/04/25 10:47:11;;;;;;;2.57;2.20;;;17.40;95.90;;;;;;5127446;27;20554;-68
2022/04/25 10:49:40;;;;;;;3.40;2.63;;;17.70;98.00;;;;;;5121209;27;20458;-69
2022/04/25 10:52:53;;;;;;;2.70;2.10;;;18.00;97.60;;;;;;5127149;27;20546;-68
2022/04/25 10:55:23;;;;;;;3.00;2.00;;;18.40;96.20;;;;;;5118911;27;20461;-68
2022/04/25 10:58:18;;;;;;;2.27;2.13;;;18.60;91.50;;;;;;5102910;27;20454;-69
2022/04/25 11:00:53;;;;;;;3.73;2.40;;;18.60;90.20;;;;;;5111204;27;20453;-68
2022/04/25 11:03:24;;;;;;;3.87;2.50;;;18.50;93.00;;;;;;5119133;27;20482;-68
2022/04/25 11:05:51;;;;;;;7.80;3.27;;;18.30;94.10;;;;;;5122860;27;20542;-68
2022/04/25 11:08:48;;;;;;;3.77;2.23;;;18.00;94.60;;;;;;5122674;27;20511;-68
2022/04/25 11:11:18;;;;;;;4.07;1.90;;;17.80;95.40;;;;;;5128383;27;20617;-68
2022/04/25 11:14:11;;;;;;;3.83;2.50;;;17.60;97.50;;;;;;5127893;27;20450;-69
2022/04/25 11:16:41;;;;;;;4.03;2.07;;;17.40;96.50;;;;;;5115994;27;20964;-68
2022/04/25 11:19:14;;;;;;;3.77;1.90;;;17.30;96.30;;;;;;5125321;27;20466;-66
2022/04/25 11:21:48;;;;;;;5.50;2.27;;;17.20;97.70;;;;;;5123882;27;20450;-66
2022/04/25 11:24:42;;;;;;;3.33;2.43;;;17.10;96.60;;;;;;5120217;28;20442;-66
2022/04/25 11:27:11;;;;;;;3.10;2.37;;;17.00;96.80;;;;;;5126873;28;20844;-66
2022/04/25 11:29:45;;;;;;;4.87;2.33;;;16.90;95.60;;;;;;5111363;27;20453;-66
2022/04/25 11:32:35;;;;;;;1.80;1.77;;;17.00;96.10;;;;;;5119120;28;21041;-68
2022/04/25 11:35:05;;;;;;;3.57;2.30;;;17.20;96.40;;;;;;5118501;28;20465;-66
2022/04/25 11:37:34;;;;;;;2.87;2.20;;;17.20;93.50;;;;;;5121351;28;21276;-68
2022/04/25 11:40:05;;;;;;;3.40;2.30;;;17.30;92.90;;;;;;5123665;28;21011;-66
2022/04/25 11:42:33;;;;;;;4.73;2.30;;;17.40;95.20;;;;;;5111980;28;20497;-66
2022/04/25 11:45:01;;;;;;;3.43;2.40;;;17.60;93.50;;;;;;5117234;28;20550;-68
2022/04/25 11:47:30;;;;;;;2.03;1.87;;;17.80;93.70;;;;;;5120865;28;20473;-67
2022/04/25 11:50:03;;;;;;;2.80;2.17;;;17.80;94.00;;;;;;5115342;28;21273;-68
2022/04/25 11:52:30;;;;;;;5.87;3.17;;;17.80;93.10;;;;;;5113091;28;20490;-68
2022/04/25 11:54:57;;;;;;;2.00;1.80;;;17.70;91.90;;;;;;5128992;27;20498;-68
2022/04/25 11:57:28;;;;;;;3.13;2.40;;;17.60;93.50;;;;;;5122012;27;20478;-68
2022/04/25 12:00:15;;;;;;;4.50;2.47;;;17.50;95.50;;;;;;5127433;27;20473;-68
2022/04/25 12:02:42;;;;;;;3.80;2.43;;;17.40;94.50;;;;;;5119675;27;20490;-68
2022/04/25 12:05:10;;;;;;;2.90;2.20;;;17.10;93.90;;;;;;5131447;27;20453;-68
2022/04/25 12:15:34;;;;;;;2.57;2.10;;;16.90;93.60;;;;;;5121995;27;20534;-67
2022/04/25 12:16:02;;;;;;;4.43;2.70;;;16.80;96.10;;;;;;5128089;27;20591;-67
2022/04/25 12:18:31;;;;;;;5.77;2.20;;;16.70;97.30;;;;;;5116154;27;20523;-67
2022/04/25 12:21:04;;;;;;;4.33;2.63;;;16.70;95.70;;;;;;5119202;27;20489;-67
2022/04/25 12:23:33;;;;;;;2.13;1.97;;;16.40;95.80;;;;;;5121525;27;20462;-67
2022/04/25 12:26:03;;;;;;;2.73;2.27;;;16.10;98.00;;;;;;5117737;27;20454;-67
2022/04/25 12:28:32;;;;;;;4.37;2.50;;;16.00;98.00;;;;;;5122129;27;20467;-67
2022/04/25 12:31:07;;;;;;;3.40;3.03;;;15.80;98.00;;;;;;5122577;27;20584;-67
2022/04/25 12:33:35;;;;;;;2.97;2.30;;;15.40;98.00;;;;;;5130468;27;20488;-67
2022/04/25 12:36:15;;;;;;;5.97;3.23;;;15.20;98.00;;;;;;5116859;27;20520;-68
2022/04/25 12:38:45;;;;;;;2.80;2.17;;;15.10;98.00;;;;;;5119560;27;20495;-67
2022/04/25 12:41:21;;;;;;;1.83;1.70;;;14.90;98.00;;;;;;5122813;27;20889;-67
2022/04/25 12:43:51;;;;;;;2.50;2.10;;;14.60;98.00;;;;;;5113953;27;20457;-69
2022/04/25 12:46:33;;;;;;;3.27;2.63;;;14.50;98.00;;;;;;5114249;27;20455;-67
2022/04/25 12:49:08;;;;;;;3.87;2.77;;;14.50;98.00;;;;;;5114553;27;20826;-67
2022/04/25 12:51:39;;;;;;;2.73;2.10;;;14.50;98.00;;;;;;5112613;27;21020;-68
2022/04/25 12:54:21;;;;;;;5.40;2.73;;;14.40;98.00;;;;;;5111345;27;20455;-67
2022/04/25 12:56:50;;;;;;;4.50;2.70;;;14.40;98.00;;;;;;5119338;27;20534;-67
2022/04/25 12:59:30;;;;;;;2.80;2.20;;;14.20;98.00;;;;;;5115605;27;20461;-67
2022/04/25 13:02:04;;;;;;;2.90;2.47;;;14.00;98.00;;;;;;5126067;27;20506;-67
2022/04/25 13:04:31;;;;;;;2.07;1.93;;;13.70;98.00;;;;;;5113106;27;20470;-67
2022/04/25 13:06:58;;;;;;;5.77;2.50;;;13.40;98.00;;;;;;5119749;27;20475;-67
2022/04/25 13:09:25;;;;;;;3.03;1.87;;;13.50;98.00;;;;;;5112901;27;20866;-67
2022/04/25 13:11:52;;;;;;;1.53;1.47;;;13.40;98.00;;;;;;5126067;27;20485;-67
2022/04/25 13:14:19;;;;;;;2.63;2.00;;;13.20;98.00;;;;;;5117170;27;20459;-67
2022/04/25 13:16:50;;;;;;;2.37;1.80;;;13.30;98.00;;;;;;5121448;27;20449;-67
2022/04/25 13:19:19;;;;;;;2.80;1.97;;;13.40;98.00;;;;;;5119331;27;20458;-67
2022/04/25 13:21:47;;;;;;;1.50;1.50;;;13.40;98.00;;;;;;5112228;27;20955;-67
2022/04/25 13:24:14;;;;;;;2.53;1.60;;;13.50;98.00;;;;;;5117653;27;20460;-66
2022/04/25 13:26:41;;;;;;;1.87;1.37;;;13.40;98.00;;;;;;5120980;27;20481;-67
2022/04/25 13:29:08;;;;;;;1.37;1.17;;;13.40;98.00;;;;;;5121366;27;20457;-67
2022/04/25 13:31:36;;;;;;;1.30;1.27;;;13.40;98.00;;;;;;5116472;27;20486;-67
2022/04/25 13:34:05;;;;;;;1.43;1.30;;;13.30;98.00;;;;;;5122144;27;20450;-67
2022/04/25 13:36:32;;;;;;;5.20;1.80;;;13.30;98.00;;;;;;5116886;27;20469;-66
2022/04/25 13:38:59;;;;;;;1.50;1.50;;;13.30;98.00;;;;;;5116835;27;20488;-67